sensor_id;sensor_type;location;lat;lon;timestamp;pressure;altitude;pressure_sealevel;temperature;humidity
70143;BME280;57509;43.054;-0.040;2022-09-09T00:04:33;97088.66;;;21.28;50.17
70143;BME280;57509;43.054;-0.040;2022-09-09T00:07:30;97074.25;;;21.21;50.27
70143;BME280;57509;43.054;-0.040;2022-09-09T00:12:42;97083.03;;;21.35;50.10
70143;BME280;57509;43.054;-0.040;2022-09-09T00:15:21;97068.16;;;21.31;49.88
70143;BME280;57509;43.054;-0.040;2022-09-09T00:17:56;97060.28;;;21.23;50.12
70143;BME280;57509;43.054;-0.040;2022-09-09T00:20:38;97090.25;;;21.41;50.05
70143;BME280;57509;43.054;-0.040;2022-09-09T00:23:30;97099.25;;;21.53;49.65
70143;BME280;57509;43.054;-0.040;2022-09-09T00:26:01;97104.91;;;21.47;50.47
70143;BME280;57509;43.054;-0.040;2022-09-09T00:28:29;97093.22;;;21.23;51.45
70143;BME280;57509;43.054;-0.040;2022-09-09T00:31:23;97079.84;;;21.26;51.47
70143;BME280;57509;43.054;-0.040;2022-09-09T00:33:48;97077.34;;;21.25;51.37
70143;BME280;57509;43.054;-0.040;2022-09-09T00:36:18;97067.44;;;21.07;51.84
70143;BME280;57509;43.054;-0.040;2022-09-09T00:38:52;97091.34;;;20.95;52.99
70143;BME280;57509;43.054;-0.040;2022-09-09T00:41:38;97097.00;;;21.05;52.67
70143;BME280;57509;43.054;-0.040;2022-09-09T00:44:31;97096.78;;;21.23;52.09
70143;BME280;57509;43.054;-0.040;2022-09-09T00:53:16;97109.75;;;21.56;51.66
70143;BME280;57509;43.054;-0.040;2022-09-09T00:58:31;97111.69;;;21.27;51.85
70143;BME280;57509;43.054;-0.040;2022-09-09T01:03:36;97123.47;;;21.39;51.45
70143;BME280;57509;43.054;-0.040;2022-09-09T01:09:30;97106.19;;;21.56;51.82
70143;BME280;57509;43.054;-0.040;2022-09-09T01:12:14;97103.91;;;21.69;51.54
70143;BME280;57509;43.054;-0.040;2022-09-09T01:14:48;97101.00;;;21.76;50.56
70143;BME280;57509;43.054;-0.040;2022-09-09T01:17:21;97092.56;;;21.83;49.89
70143;BME280;57509;43.054;-0.040;2022-09-09T01:20:12;97096.22;;;21.88;49.89
70143;BME280;57509;43.054;-0.040;2022-09-09T01:28:34;97115.72;;;22.04;49.35
70143;BME280;57509;43.054;-0.040;2022-09-09T01:31:03;97119.53;;;22.03;49.43
70143;BME280;57509;43.054;-0.040;2022-09-09T01:33:32;97110.44;;;22.02;49.38
70143;BME280;57509;43.054;-0.040;2022-09-09T01:36:06;97105.81;;;22.03;48.80
70143;BME280;57509;43.054;-0.040;2022-09-09T01:38:36;97080.91;;;21.92;48.90
70143;BME280;57509;43.054;-0.040;2022-09-09T01:41:02;97097.78;;;22.01;48.56
70143;BME280;57509;43.054;-0.040;2022-09-09T01:43:28;97077.41;;;21.97;48.56
70143;BME280;57509;43.054;-0.040;2022-09-09T01:45:56;97104.88;;;22.14;48.60
70143;BME280;57509;43.054;-0.040;2022-09-09T01:48:24;97101.72;;;22.05;48.49
70143;BME280;57509;43.054;-0.040;2022-09-09T01:50:51;97086.41;;;21.92;48.75
70143;BME280;57509;43.054;-0.040;2022-09-09T01:53:17;97113.91;;;22.09;48.97
70143;BME280;57509;43.054;-0.040;2022-09-09T01:56:05;97112.53;;;22.12;49.16
70143;BME280;57509;43.054;-0.040;2022-09-09T02:03:56;97122.56;;;21.84;50.66
70143;BME280;57509;43.054;-0.040;2022-09-09T02:06:36;97121.22;;;21.87;50.80
70143;BME280;57509;43.054;-0.040;2022-09-09T02:09:12;97096.75;;;21.68;50.75
70143;BME280;57509;43.054;-0.040;2022-09-09T02:11:40;97106.41;;;21.71;51.04
70143;BME280;57509;43.054;-0.040;2022-09-09T02:14:16;97117.38;;;21.88;50.49
70143;BME280;57509;43.054;-0.040;2022-09-09T02:16:49;97098.91;;;21.83;50.91
70143;BME280;57509;43.054;-0.040;2022-09-09T02:19:28;97120.38;;;22.03;50.11
70143;BME280;57509;43.054;-0.040;2022-09-09T02:21:57;97093.66;;;21.82;50.61
70143;BME280;57509;43.054;-0.040;2022-09-09T02:24:23;97121.03;;;21.93;50.80
70143;BME280;57509;43.054;-0.040;2022-09-09T02:26:52;97103.91;;;21.86;50.34
70143;BME280;57509;43.054;-0.040;2022-09-09T02:29:28;97110.56;;;21.90;50.51
70143;BME280;57509;43.054;-0.040;2022-09-09T02:31:58;97121.19;;;22.04;50.27
70143;BME280;57509;43.054;-0.040;2022-09-09T02:34:29;97117.09;;;22.06;50.12
70143;BME280;57509;43.054;-0.040;2022-09-09T02:36:57;97106.22;;;22.11;50.21
70143;BME280;57509;43.054;-0.040;2022-09-09T02:39:27;97116.19;;;22.17;50.24
70143;BME280;57509;43.054;-0.040;2022-09-09T02:41:53;97100.06;;;22.21;50.05
70143;BME280;57509;43.054;-0.040;2022-09-09T02:44:19;97092.03;;;22.19;50.10
70143;BME280;57509;43.054;-0.040;2022-09-09T02:52:26;97105.41;;;22.11;50.19
70143;BME280;57509;43.054;-0.040;2022-09-09T02:54:57;97104.06;;;21.97;50.78
70143;BME280;57509;43.054;-0.040;2022-09-09T02:57:28;97096.56;;;21.92;50.66
70143;BME280;57509;43.054;-0.040;2022-09-09T02:59:59;97098.88;;;22.00;50.98
70143;BME280;57509;43.054;-0.040;2022-09-09T03:02:25;97077.09;;;21.93;51.01
70143;BME280;57509;43.054;-0.040;2022-09-09T03:04:51;97078.75;;;21.94;50.71
70143;BME280;57509;43.054;-0.040;2022-09-09T03:07:18;97059.97;;;21.69;51.21
70143;BME280;57509;43.054;-0.040;2022-09-09T03:09:46;97075.97;;;21.73;51.96
70143;BME280;57509;43.054;-0.040;2022-09-09T03:12:12;97078.81;;;21.61;51.89
70143;BME280;57509;43.054;-0.040;2022-09-09T03:14:38;97083.47;;;21.44;52.50
70143;BME280;57509;43.054;-0.040;2022-09-09T03:17:05;97076.97;;;21.50;52.23
70143;BME280;57509;43.054;-0.040;2022-09-09T03:19:33;97098.25;;;21.59;52.11
70143;BME280;57509;43.054;-0.040;2022-09-09T03:22:00;97075.88;;;21.51;51.85
70143;BME280;57509;43.054;-0.040;2022-09-09T03:24:26;97083.63;;;21.54;52.06
70143;BME280;57509;43.054;-0.040;2022-09-09T03:26:51;97105.34;;;21.72;52.15
70143;BME280;57509;43.054;-0.040;2022-09-09T03:29:20;97098.59;;;21.80;51.69
70143;BME280;57509;43.054;-0.040;2022-09-09T03:31:46;97090.59;;;21.78;51.99
70143;BME280;57509;43.054;-0.040;2022-09-09T03:34:12;97110.41;;;21.80;51.52
70143;BME280;57509;43.054;-0.040;2022-09-09T03:36:39;97105.16;;;21.79;51.78
70143;BME280;57509;43.054;-0.040;2022-09-09T03:39:06;97114.41;;;21.73;51.98
70143;BME280;57509;43.054;-0.040;2022-09-09T03:41:35;97106.41;;;21.71;51.73
70143;BME280;57509;43.054;-0.040;2022-09-09T03:44:02;97124.53;;;21.89;51.88
70143;BME280;57509;43.054;-0.040;2022-09-09T03:46:30;97103.91;;;21.86;51.70
70143;BME280;57509;43.054;-0.040;2022-09-09T03:48:59;97121.19;;;22.04;51.63
70143;BME280;57509;43.054;-0.040;2022-09-09T03:51:25;97102.16;;;21.97;51.83
70143;BME280;57509;43.054;-0.040;2022-09-09T03:53:50;97115.78;;;22.09;51.36
70143;BME280;57509;43.054;-0.040;2022-09-09T03:56:16;97115.88;;;22.14;51.26
70143;BME280;57509;43.054;-0.040;2022-09-09T03:58:41;97122.03;;;22.21;51.53
70143;BME280;57509;43.054;-0.040;2022-09-09T04:01:11;97125.69;;;22.27;51.08
70143;BME280;57509;43.054;-0.040;2022-09-09T04:03:43;97107.19;;;22.22;51.10
70143;BME280;57509;43.054;-0.040;2022-09-09T04:06:11;97119.19;;;22.33;51.20
70143;BME280;57509;43.054;-0.040;2022-09-09T04:08:37;97108.19;;;22.33;50.99
70143;BME280;57509;43.054;-0.040;2022-09-09T04:11:05;97097.22;;;22.16;51.19
70143;BME280;57509;43.054;-0.040;2022-09-09T04:13:41;97112.06;;;22.15;51.89
70143;BME280;57509;43.054;-0.040;2022-09-09T04:16:09;97081.09;;;21.86;52.13
70143;BME280;57509;43.054;-0.040;2022-09-09T04:18:38;97085.84;;;21.90;52.65
70143;BME280;57509;43.054;-0.040;2022-09-09T04:21:06;97105.38;;;21.94;52.73
70143;BME280;57509;43.054;-0.040;2022-09-09T04:23:42;97088.91;;;21.77;52.55
70143;BME280;57509;43.054;-0.040;2022-09-09T04:26:18;97085.78;;;21.35;53.22
70143;BME280;57509;43.054;-0.040;2022-09-09T04:29:02;97075.78;;;21.29;53.80
70143;BME280;57509;43.054;-0.040;2022-09-09T04:31:43;97077.00;;;21.21;53.42
70143;BME280;57509;43.054;-0.040;2022-09-09T04:34:20;97071.13;;;20.84;53.97
70143;BME280;57509;43.054;-0.040;2022-09-09T04:36:59;97064.72;;;20.78;53.98
70143;BME280;57509;43.054;-0.040;2022-09-09T04:39:40;97089.50;;;20.83;54.33
70143;BME280;57509;43.054;-0.040;2022-09-09T04:42:18;97074.34;;;20.81;54.44
70143;BME280;57509;43.054;-0.040;2022-09-09T04:45:01;97083.91;;;20.78;54.50
70143;BME280;57509;43.054;-0.040;2022-09-09T04:47:40;97077.16;;;20.69;54.44
70143;BME280;57509;43.054;-0.040;2022-09-09T04:50:21;97070.34;;;20.72;54.47
70143;BME280;57509;43.054;-0.040;2022-09-09T04:53:00;97093.91;;;20.84;54.39
70143;BME280;57509;43.054;-0.040;2022-09-09T04:58:33;97094.19;;;21.00;54.22
70143;BME280;57509;43.054;-0.040;2022-09-09T05:01:22;97080.75;;;20.86;53.84
70143;BME280;57509;43.054;-0.040;2022-09-09T05:03:51;97066.88;;;20.76;54.07
70143;BME280;57509;43.054;-0.040;2022-09-09T05:06:28;97069.97;;;20.51;54.82
70143;BME280;57509;43.054;-0.040;2022-09-09T05:09:14;97073.19;;;20.36;55.04
70143;BME280;57509;43.054;-0.040;2022-09-09T05:11:53;97099.38;;;20.44;54.99
70143;BME280;57509;43.054;-0.040;2022-09-09T05:14:18;97070.03;;;20.16;55.28
70143;BME280;57509;43.054;-0.040;2022-09-09T05:17:03;97090.72;;;20.24;55.37
70143;BME280;57509;43.054;-0.040;2022-09-09T05:19:31;97085.28;;;20.12;55.48
70143;BME280;57509;43.054;-0.040;2022-09-09T05:21:57;97086.81;;;20.08;55.11
70143;BME280;57509;43.054;-0.040;2022-09-09T05:24:30;97095.16;;;20.13;55.51
70143;BME280;57509;43.054;-0.040;2022-09-09T05:27:07;97109.53;;;20.20;55.53
70143;BME280;57509;43.054;-0.040;2022-09-09T05:29:40;97103.22;;;20.20;55.60
70143;BME280;57509;43.054;-0.040;2022-09-09T05:32:16;97076.22;;;20.12;55.41
70143;BME280;57509;43.054;-0.040;2022-09-09T05:34:46;97088.59;;;20.14;55.49
70143;BME280;57509;43.054;-0.040;2022-09-09T05:37:24;97117.75;;;20.32;55.42
70143;BME280;57509;43.054;-0.040;2022-09-09T05:40:01;97122.50;;;20.36;55.82
70143;BME280;57509;43.054;-0.040;2022-09-09T05:42:40;97123.34;;;20.25;55.70
70143;BME280;57509;43.054;-0.040;2022-09-09T05:45:16;97118.50;;;20.27;55.88
70143;BME280;57509;43.054;-0.040;2022-09-09T05:47:54;97117.75;;;20.20;55.64
70143;BME280;57509;43.054;-0.040;2022-09-09T05:50:32;97140.53;;;20.32;55.64
70143;BME280;57509;43.054;-0.040;2022-09-09T05:53:09;97141.56;;;20.55;55.26
70143;BME280;57509;43.054;-0.040;2022-09-09T05:55:47;97144.13;;;20.73;55.42
70143;BME280;57509;43.054;-0.040;2022-09-09T05:58:23;97153.25;;;20.91;55.38
70143;BME280;57509;43.054;-0.040;2022-09-09T06:00:51;97159.69;;;20.96;54.73
70143;BME280;57509;43.054;-0.040;2022-09-09T06:03:17;97151.72;;;20.95;54.78
70143;BME280;57509;43.054;-0.040;2022-09-09T06:05:57;97164.44;;;21.01;54.69
70143;BME280;57509;43.054;-0.040;2022-09-09T06:08:36;97165.13;;;21.08;54.78
70143;BME280;57509;43.054;-0.040;2022-09-09T06:11:09;97155.22;;;21.07;54.54
70143;BME280;57509;43.054;-0.040;2022-09-09T06:13:45;97167.09;;;21.24;54.29
70143;BME280;57509;43.054;-0.040;2022-09-09T06:16:20;97153.75;;;21.16;53.70
70143;BME280;57509;43.054;-0.040;2022-09-09T06:18:48;97158.97;;;21.29;53.94
70143;BME280;57509;43.054;-0.040;2022-09-09T06:21:27;97163.06;;;21.44;53.50
70143;BME280;57509;43.054;-0.040;2022-09-09T06:24:06;97165.81;;;21.44;53.27
70143;BME280;57509;43.054;-0.040;2022-09-09T06:26:45;97145.31;;;21.34;53.64
70143;BME280;57509;43.054;-0.040;2022-09-09T06:29:31;97156.84;;;21.48;53.57
70143;BME280;57509;43.054;-0.040;2022-09-09T06:32:04;97155.16;;;21.47;53.69
70143;BME280;57509;43.054;-0.040;2022-09-09T06:34:40;97178.59;;;21.66;52.92
70143;BME280;57509;43.054;-0.040;2022-09-09T06:37:19;97161.81;;;21.51;53.36
70143;BME280;57509;43.054;-0.040;2022-09-09T06:39:55;97180.31;;;21.56;53.63
70143;BME280;57509;43.054;-0.040;2022-09-09T06:42:30;97192.31;;;21.66;53.87
70143;BME280;57509;43.054;-0.040;2022-09-09T06:45:04;97167.66;;;21.55;53.21
70143;BME280;57509;43.054;-0.040;2022-09-09T06:47:32;97184.66;;;21.68;53.37
70143;BME280;57509;43.054;-0.040;2022-09-09T06:49:59;97174.88;;;21.44;54.08
70143;BME280;57509;43.054;-0.040;2022-09-09T06:52:42;97170.19;;;21.73;53.40
70143;BME280;57509;43.054;-0.040;2022-09-09T06:55:15;97183.31;;;21.88;52.69
70143;BME280;57509;43.054;-0.040;2022-09-09T06:58:00;97201.97;;;21.69;53.51
70143;BME280;57509;43.054;-0.040;2022-09-09T07:00:52;97179.97;;;21.52;53.55
70143;BME280;57509;43.054;-0.040;2022-09-09T07:03:30;97183.97;;;21.61;53.64
70143;BME280;57509;43.054;-0.040;2022-09-09T07:05:57;97205.63;;;21.75;53.85
70143;BME280;57509;43.054;-0.040;2022-09-09T07:08:36;97198.22;;;21.75;53.06
70143;BME280;57509;43.054;-0.040;2022-09-09T07:14:26;97206.13;;;21.88;53.75
70143;BME280;57509;43.054;-0.040;2022-09-09T07:17:03;97192.28;;;21.83;52.98
70143;BME280;57509;43.054;-0.040;2022-09-09T07:19:36;97190.53;;;21.77;51.64
70143;BME280;57509;43.054;-0.040;2022-09-09T07:22:05;97197.13;;;21.76;52.13
70143;BME280;57509;43.054;-0.040;2022-09-09T07:25:03;97220.78;;;21.94;51.92
70143;BME280;57509;43.054;-0.040;2022-09-09T07:27:45;97193.47;;;21.87;52.20
70143;BME280;57509;43.054;-0.040;2022-09-09T07:30:21;97226.94;;;22.01;52.37
70143;BME280;57509;43.054;-0.040;2022-09-09T07:32:51;97211.28;;;21.68;52.77
70143;BME280;57509;43.054;-0.040;2022-09-09T07:35:21;97225.09;;;21.73;53.58
70143;BME280;57509;43.054;-0.040;2022-09-09T07:38:30;97237.94;;;21.84;53.83
70143;BME280;57509;43.054;-0.040;2022-09-09T07:44:33;97214.88;;;21.85;53.49
70143;BME280;57509;43.054;-0.040;2022-09-09T07:50:37;97229.31;;;22.09;52.82
70143;BME280;57509;43.054;-0.040;2022-09-09T07:53:13;97241.38;;;22.25;53.08
70143;BME280;57509;43.054;-0.040;2022-09-09T07:55:49;97232.81;;;22.21;52.03
70143;BME280;57509;43.054;-0.040;2022-09-09T07:58:25;97248.97;;;22.18;52.05
70143;BME280;57509;43.054;-0.040;2022-09-09T08:00:58;97233.66;;;22.22;52.10
70143;BME280;57509;43.054;-0.040;2022-09-09T08:03:34;97250.38;;;22.37;51.95
70143;BME280;57509;43.054;-0.040;2022-09-09T08:06:13;97260.22;;;22.33;52.15
70143;BME280;57509;43.054;-0.040;2022-09-09T08:09:02;97269.47;;;22.10;52.63
70143;BME280;57509;43.054;-0.040;2022-09-09T08:11:41;97254.59;;;21.94;53.41
70143;BME280;57509;43.054;-0.040;2022-09-09T08:14:16;97261.91;;;21.89;53.73
70143;BME280;57509;43.054;-0.040;2022-09-09T08:16:45;97266.25;;;22.02;53.73
70143;BME280;57509;43.054;-0.040;2022-09-09T08:19:28;97285.78;;;22.17;53.69
70143;BME280;57509;43.054;-0.040;2022-09-09T08:22:05;97260.97;;;22.12;53.45
70143;BME280;57509;43.054;-0.040;2022-09-09T08:24:31;97278.13;;;22.36;53.25
70143;BME280;57509;43.054;-0.040;2022-09-09T08:27:07;97264.13;;;22.20;53.48
70143;BME280;57509;43.054;-0.040;2022-09-09T08:29:32;97261.78;;;22.29;53.62
70143;BME280;57509;43.054;-0.040;2022-09-09T08:32:11;97280.19;;;22.45;52.71
70143;BME280;57509;43.054;-0.040;2022-09-09T08:37:40;97285.25;;;22.87;52.03
70143;BME280;57509;43.054;-0.040;2022-09-09T08:40:10;97301.63;;;22.99;51.77
70143;BME280;57509;43.054;-0.040;2022-09-09T08:42:49;97309.38;;;23.02;52.25
70143;BME280;57509;43.054;-0.040;2022-09-09T08:50:42;97301.66;;;23.21;51.68
70143;BME280;57509;43.054;-0.040;2022-09-09T08:53:42;97308.88;;;23.27;51.58
70143;BME280;57509;43.054;-0.040;2022-09-09T08:56:21;97301.88;;;22.97;52.27
70143;BME280;57509;43.054;-0.040;2022-09-09T08:58:55;97306.84;;;22.62;53.08
70143;BME280;57509;43.054;-0.040;2022-09-09T09:05:13;97295.06;;;22.83;52.84
70143;BME280;57509;43.054;-0.040;2022-09-09T09:07:49;97322.25;;;22.63;53.57
70143;BME280;57509;43.054;-0.040;2022-09-09T09:12:58;97316.16;;;22.78;52.98
70143;BME280;57509;43.054;-0.040;2022-09-09T09:15:41;97314.41;;;22.71;53.28
70143;BME280;57509;43.054;-0.040;2022-09-09T09:18:23;97317.06;;;22.83;52.53
70143;BME280;57509;43.054;-0.040;2022-09-09T09:23:25;97327.59;;;22.69;53.52
70143;BME280;57509;43.054;-0.040;2022-09-09T09:25:58;97324.91;;;22.74;53.41
70143;BME280;57509;43.054;-0.040;2022-09-09T09:28:29;97335.16;;;22.79;53.67
70143;BME280;57509;43.054;-0.040;2022-09-09T09:31:08;97345.41;;;22.84;53.90
70143;BME280;57509;43.054;-0.040;2022-09-09T09:36:12;97330.00;;;22.32;54.71
70143;BME280;57509;43.054;-0.040;2022-09-09T09:38:58;97350.88;;;22.45;54.55
70143;BME280;57509;43.054;-0.040;2022-09-09T09:41:38;97354.09;;;22.42;55.22
70143;BME280;57509;43.054;-0.040;2022-09-09T09:44:33;97350.75;;;22.57;54.97
70143;BME280;57509;43.054;-0.040;2022-09-09T09:47:12;97361.28;;;22.60;55.69
70143;BME280;57509;43.054;-0.040;2022-09-09T09:49:39;97364.59;;;22.62;55.39
70143;BME280;57509;43.054;-0.040;2022-09-09T09:52:06;97369.78;;;22.41;56.59
70143;BME280;57509;43.054;-0.040;2022-09-09T09:55:12;97369.41;;;22.38;56.87
70143;BME280;57509;43.054;-0.040;2022-09-09T09:57:39;97373.75;;;22.51;56.41
70143;BME280;57509;43.054;-0.040;2022-09-09T10:00:13;97384.75;;;22.51;56.86
70143;BME280;57509;43.054;-0.040;2022-09-09T10:02:41;97369.56;;;22.14;57.90
70143;BME280;57509;43.054;-0.040;2022-09-09T10:05:21;97377.94;;;21.79;59.85
70143;BME280;57509;43.054;-0.040;2022-09-09T10:08:08;97392.00;;;21.83;60.65
70143;BME280;57509;43.054;-0.040;2022-09-09T10:19:30;97410.09;;;22.86;59.84
70143;BME280;57509;43.054;-0.040;2022-09-09T10:30:06;97387.41;;;23.51;58.22
70143;BME280;57509;43.054;-0.040;2022-09-09T10:32:40;97402.13;;;23.79;57.24
70143;BME280;57509;43.054;-0.040;2022-09-09T10:35:25;97399.59;;;23.55;56.40
70143;BME280;57509;43.054;-0.040;2022-09-09T10:38:14;97389.41;;;23.78;56.70
70143;BME280;57509;43.054;-0.040;2022-09-09T10:43:41;97400.84;;;23.65;55.97
70143;BME280;57509;43.054;-0.040;2022-09-09T10:46:40;97412.50;;;23.33;55.88
70143;BME280;57509;43.054;-0.040;2022-09-09T10:55:39;97395.44;;;22.81;56.71
70143;BME280;57509;43.054;-0.040;2022-09-09T10:58:29;97393.44;;;22.93;54.92
70143;BME280;57509;43.054;-0.040;2022-09-09T11:01:23;97386.50;;;22.23;55.72
70143;BME280;57509;43.054;-0.040;2022-09-09T11:04:17;97410.91;;;22.36;58.17
70143;BME280;57509;43.054;-0.040;2022-09-09T11:06:54;97409.78;;;22.66;56.67
70143;BME280;57509;43.054;-0.040;2022-09-09T11:09:30;97405.25;;;22.88;54.34
70143;BME280;57509;43.054;-0.040;2022-09-09T11:12:01;97409.13;;;23.09;54.34
70143;BME280;57509;43.054;-0.040;2022-09-09T11:14:53;97397.44;;;23.19;54.61
70143;BME280;57509;43.054;-0.040;2022-09-09T11:17:25;97398.47;;;23.73;51.68
70143;BME280;57509;43.054;-0.040;2022-09-09T11:23:59;97390.25;;;24.27;49.15
70143;BME280;57509;43.054;-0.040;2022-09-09T11:26:41;97358.06;;;24.33;48.83
70143;BME280;57509;43.054;-0.040;2022-09-09T11:29:42;97384.63;;;24.39;48.09
70143;BME280;57509;43.054;-0.040;2022-09-09T11:38:14;97376.50;;;25.34;45.77
70143;BME280;57509;43.054;-0.040;2022-09-09T11:41:09;97363.78;;;25.80;45.65
70143;BME280;57509;43.054;-0.040;2022-09-09T11:43:55;97369.63;;;27.62;40.95
70143;BME280;57509;43.054;-0.040;2022-09-09T11:46:34;97338.00;;;28.23;38.98
70143;BME280;57509;43.054;-0.040;2022-09-09T11:49:05;97359.97;;;28.93;39.03
70143;BME280;57509;43.054;-0.040;2022-09-09T11:51:41;97349.84;;;30.97;38.24
70143;BME280;57509;43.054;-0.040;2022-09-09T11:54:47;97364.72;;;32.58;31.94
70143;BME280;57509;43.054;-0.040;2022-09-09T11:57:39;97362.97;;;33.06;31.89
70143;BME280;57509;43.054;-0.040;2022-09-09T12:00:05;97366.91;;;33.05;30.53
70143;BME280;57509;43.054;-0.040;2022-09-09T12:02:31;97371.41;;;32.70;29.79
70143;BME280;57509;43.054;-0.040;2022-09-09T12:05:10;97372.66;;;33.94;31.56
70143;BME280;57509;43.054;-0.040;2022-09-09T12:07:42;97362.97;;;34.00;27.45
70143;BME280;57509;43.054;-0.040;2022-09-09T12:10:34;97370.44;;;33.82;29.84
70143;BME280;57509;43.054;-0.040;2022-09-09T12:13:13;97375.69;;;32.90;30.05
70143;BME280;57509;43.054;-0.040;2022-09-09T12:15:47;97377.56;;;31.81;31.21
70143;BME280;57509;43.054;-0.040;2022-09-09T12:18:24;97380.19;;;31.31;32.14
70143;BME280;57509;43.054;-0.040;2022-09-09T12:24:19;97377.13;;;30.81;32.97
70143;BME280;57509;43.054;-0.040;2022-09-09T12:27:00;97365.00;;;29.20;36.45
70143;BME280;57509;43.054;-0.040;2022-09-09T12:30:19;97359.97;;;28.93;36.50
70143;BME280;57509;43.054;-0.040;2022-09-09T12:33:01;97373.06;;;28.87;36.84
70143;BME280;57509;43.054;-0.040;2022-09-09T12:35:28;97381.47;;;28.43;37.30
70143;BME280;57509;43.054;-0.040;2022-09-09T12:37:59;97374.50;;;27.91;38.37
70143;BME280;57509;43.054;-0.040;2022-09-09T12:40:34;97361.69;;;28.05;38.18
70143;BME280;57509;43.054;-0.040;2022-09-09T12:43:18;97360.50;;;28.21;37.80
70143;BME280;57509;43.054;-0.040;2022-09-09T12:45:48;97367.78;;;28.07;37.65
70143;BME280;57509;43.054;-0.040;2022-09-09T12:48:38;97351.06;;;27.58;38.36
70143;BME280;57509;43.054;-0.040;2022-09-09T12:51:36;97349.53;;;27.06;40.61
70143;BME280;57509;43.054;-0.040;2022-09-09T12:54:13;97368.09;;;26.90;40.40
70143;BME280;57509;43.054;-0.040;2022-09-09T12:56:45;97358.69;;;26.81;40.59
70143;BME280;57509;43.054;-0.040;2022-09-09T12:59:37;97354.53;;;26.78;40.40
70143;BME280;57509;43.054;-0.040;2022-09-09T13:02:25;97362.03;;;26.83;40.76
70143;BME280;57509;43.054;-0.040;2022-09-09T13:05:38;97363.38;;;26.90;40.92
70143;BME280;57509;43.054;-0.040;2022-09-09T13:08:25;97331.28;;;26.84;40.66
70143;BME280;57509;43.054;-0.040;2022-09-09T13:11:09;97340.94;;;26.87;40.32
70143;BME280;57509;43.054;-0.040;2022-09-09T13:13:56;97330.44;;;26.79;40.46
70143;BME280;57509;43.054;-0.040;2022-09-09T13:16:36;97356.47;;;27.13;40.19
70143;BME280;57509;43.054;-0.040;2022-09-09T13:19:18;97329.88;;;26.87;40.56
70143;BME280;57509;43.054;-0.040;2022-09-09T13:21:56;97326.03;;;26.88;41.27
70143;BME280;57509;43.054;-0.040;2022-09-09T13:24:37;97353.38;;;27.05;40.75
70143;BME280;57509;43.054;-0.040;2022-09-09T13:27:34;97352.56;;;27.04;39.52
70143;BME280;57509;43.054;-0.040;2022-09-09T13:30:29;97352.00;;;27.17;39.25
70143;BME280;57509;43.054;-0.040;2022-09-09T13:33:20;97318.81;;;27.07;40.09
70143;BME280;57509;43.054;-0.040;2022-09-09T13:36:08;97327.06;;;27.22;38.96
70143;BME280;57509;43.054;-0.040;2022-09-09T13:38:56;97311.56;;;27.21;38.97
70143;BME280;57509;43.054;-0.040;2022-09-09T13:41:33;97297.63;;;27.42;39.11
70143;BME280;57509;43.054;-0.040;2022-09-09T13:44:01;97324.25;;;27.38;39.38
70143;BME280;57509;43.054;-0.040;2022-09-09T13:46:39;97313.69;;;27.45;39.34
70143;BME280;57509;43.054;-0.040;2022-09-09T13:51:46;97313.38;;;27.51;39.53
70143;BME280;57509;43.054;-0.040;2022-09-09T13:54:30;97300.75;;;27.85;37.58
70143;BME280;57509;43.054;-0.040;2022-09-09T13:57:02;97289.31;;;27.96;37.20
70143;BME280;57509;43.054;-0.040;2022-09-09T13:59:27;97282.56;;;28.13;36.84
70143;BME280;57509;43.054;-0.040;2022-09-09T14:02:06;97310.22;;;28.96;35.62
70143;BME280;57509;43.054;-0.040;2022-09-09T14:04:45;97311.31;;;29.72;34.57
70143;BME280;57509;43.054;-0.040;2022-09-09T14:07:18;97300.00;;;30.06;32.78
70143;BME280;57509;43.054;-0.040;2022-09-09T14:10:05;97296.53;;;29.53;33.98
70143;BME280;57509;43.054;-0.040;2022-09-09T14:12:54;97283.41;;;29.58;34.36
70143;BME280;57509;43.054;-0.040;2022-09-09T14:15:20;97275.13;;;29.29;34.57
70143;BME280;57509;43.054;-0.040;2022-09-09T14:17:48;97301.72;;;29.35;35.56
70143;BME280;57509;43.054;-0.040;2022-09-09T14:20:14;97305.06;;;29.37;35.86
70143;BME280;57509;43.054;-0.040;2022-09-09T14:22:43;97279.03;;;29.28;35.52
70143;BME280;57509;43.054;-0.040;2022-09-09T14:25:09;97308.38;;;29.39;35.84
70143;BME280;57509;43.054;-0.040;2022-09-09T14:27:48;97283.22;;;29.50;35.73
70143;BME280;57509;43.054;-0.040;2022-09-09T14:30:16;97310.28;;;29.68;34.65
70143;BME280;57509;43.054;-0.040;2022-09-09T14:32:42;97288.66;;;29.12;35.83
70143;BME280;57509;43.054;-0.040;2022-09-09T14:35:27;97309.97;;;28.93;36.59
70143;BME280;57509;43.054;-0.040;2022-09-09T14:37:53;97293.44;;;28.77;36.68
70143;BME280;57509;43.054;-0.040;2022-09-09T14:40:23;97288.13;;;28.52;37.95
70143;BME280;57509;43.054;-0.040;2022-09-09T14:42:49;97293.72;;;29.58;37.15
70143;BME280;57509;43.054;-0.040;2022-09-09T14:45:14;97298.13;;;30.21;35.28
70143;BME280;57509;43.054;-0.040;2022-09-09T14:47:42;97302.72;;;31.42;33.53
70143;BME280;57509;43.054;-0.040;2022-09-09T14:50:17;97299.38;;;32.09;32.52
70143;BME280;57509;43.054;-0.040;2022-09-09T14:52:43;97291.19;;;32.93;30.27
70143;BME280;57509;43.054;-0.040;2022-09-09T14:55:09;97288.25;;;32.76;30.05
70143;BME280;57509;43.054;-0.040;2022-09-09T14:57:37;97302.38;;;32.12;31.08
70143;BME280;57509;43.054;-0.040;2022-09-09T15:00:04;97292.16;;;32.30;31.80
70143;BME280;57509;43.054;-0.040;2022-09-09T15:02:31;97289.47;;;32.39;31.75
70143;BME280;57509;43.054;-0.040;2022-09-09T15:05:00;97284.78;;;33.64;31.30
70143;BME280;57509;43.054;-0.040;2022-09-09T15:07:26;97310.91;;;33.50;29.11
70143;BME280;57509;43.054;-0.040;2022-09-09T15:17:36;97318.34;;;32.20;29.39
70143;BME280;57509;43.054;-0.040;2022-09-09T15:20:03;97304.47;;;31.65;30.95
70143;BME280;57509;43.054;-0.040;2022-09-09T15:22:31;97296.06;;;30.96;31.18
70143;BME280;57509;43.054;-0.040;2022-09-09T15:24:57;97276.97;;;30.01;32.14
70143;BME280;57509;43.054;-0.040;2022-09-09T15:27:22;97277.56;;;29.79;33.34
70143;BME280;57509;43.054;-0.040;2022-09-09T15:29:49;97291.78;;;29.29;34.09
70143;BME280;57509;43.054;-0.040;2022-09-09T15:32:17;97278.53;;;28.97;34.40
70143;BME280;57509;43.054;-0.040;2022-09-09T15:34:43;97283.19;;;29.07;34.99